Time;durP1;ratioP1;P1;durP2;ratioP2;P2;SDS_P1;SDS_P2;PMS_P1;PMS_P2;Temp;Humidity;BMP_temperature;BMP_pressure;BME280_temperature;BME280_humidity;BME280_pressure;Samples;Min_cycle;Max_cycle;Signal;HPM_P1;HPM_P2
2021/06/11 00:01:14;;;;;;;8.07;7.37;;;;;;;22.58;52.91;94304.77;833933;71;31695;-75
2021/06/11 00:16:14;;;;;;;8.70;7.00;;;;;;;22.50;52.83;94298.40;827469;71;32141;-76
2021/06/11 00:31:14;;;;;;;7.43;6.83;;;;;;;22.43;52.93;94294.34;827833;71;31901;-76
2021/06/11 00:46:15;;;;;;;7.63;6.90;;;;;;;22.37;52.68;94279.19;827574;71;31840;-77
2021/06/11 01:01:08;;;;;;;7.77;7.07;;;;;;;22.27;52.59;94275.28;828256;71;29192;-76
2021/06/11 01:16:08;;;;;;;6.77;6.20;;;;;;;22.18;52.40;94276.10;828450;71;28826;-75
2021/06/11 01:31:08;;;;;;;6.37;5.87;;;;;;;22.12;52.38;94292.27;836049;70;29330;-78
2021/06/11 01:46:18;;;;;;;7.58;6.97;;;;;;;22.09;52.07;94295.69;827463;71;31679;-76
2021/06/11 02:01:17;;;;;;;6.95;6.45;;;;;;;22.04;52.21;94282.64;834014;71;32167;-77
2021/06/11 02:16:11;;;;;;;7.00;6.50;;;;;;;22.03;52.28;94261.84;828771;71;29371;-74
2021/06/11 02:31:15;;;;;;;6.80;6.20;;;;;;;21.90;52.62;94264.58;829033;71;31763;-76
2021/06/11 02:46:18;;;;;;;7.22;6.72;;;;;;;21.58;52.91;94287.09;828187;71;29661;-76
2021/06/11 03:16:08;;;;;;;7.45;6.70;;;;;;;21.80;52.61;94296.71;828658;71;28658;-76
2021/06/11 03:31:15;;;;;;;8.58;6.42;;;;;;;22.15;52.02;94294.22;829163;71;29698;-77
2021/06/11 03:46:11;;;;;;;7.90;7.10;;;;;;;22.62;52.38;94278.64;828192;71;29251;-76
2021/06/11 04:01:11;;;;;;;8.17;7.43;;;;;;;23.17;51.20;94287.46;828277;71;30843;-77
2021/06/11 04:16:18;;;;;;;10.00;8.40;;;;;;;23.14;51.74;94305.63;828502;71;29825;-78
2021/06/11 04:31:16;;;;;;;11.07;9.97;;;;;;;23.44;52.41;94303.88;827547;71;32687;-77
2021/06/11 04:46:15;;;;;;;12.77;11.17;;;;;;;23.58;52.75;94307.97;827646;71;32764;-78
2021/06/11 05:01:13;;;;;;;10.20;9.20;;;;;;;24.61;49.97;94305.45;829401;71;32619;-78
2021/06/11 05:16:14;;;;;;;10.30;8.40;;;;;;;25.57;47.79;94314.04;827874;71;33165;-79
2021/06/11 05:31:18;;;;;;;9.10;8.30;;;;;;;26.45;45.37;94311.94;828150;71;33196;-76
2021/06/11 05:46:14;;;;;;;9.53;8.73;;;;;;;27.08;43.94;94325.94;827701;71;32697;-75
2021/06/11 06:01:08;;;;;;;8.13;7.47;;;;;;;26.22;44.80;94327.27;835678;71;29709;-77
2021/06/11 06:16:07;;;;;;;8.13;7.50;;;;;;;;;;828480;71;29744;-77
2021/06/11 06:31:12;;;;;;;7.40;6.70;;;;;;;;;;828224;71;32577;-77
2021/06/11 06:46:21;;;;;;;7.27;6.70;;;;;;;28.74;39.49;94341.84;827535;71;31707;-77
2021/06/11 07:01:14;;;;;;;7.10;6.60;;;;;;;29.80;37.13;94336.44;827680;71;31673;-77
2021/06/11 07:16:16;;;;;;;6.80;6.40;;;;;;;30.68;35.27;94329.63;827350;71;32647;-77
2021/06/11 07:31:17;;;;;;;6.80;6.30;;;;;;;31.20;34.80;94319.90;827479;71;32307;-78
2021/06/11 07:46:15;;;;;;;6.60;6.20;;;;;;;31.02;36.92;94319.58;834106;71;32744;-77
2021/06/11 08:01:09;;;;;;;6.77;6.30;;;;;;;31.04;37.17;94316.60;828131;71;29235;-75
2021/06/11 08:16:29;;;;;;;7.40;6.80;;;;;;;30.81;37.46;94316.16;826707;71;31768;-77
2021/06/11 08:31:15;;;;;;;6.40;6.00;;;;;;;30.70;35.79;94308.89;822543;71;28303;-77
2021/06/11 08:46:15;;;;;;;7.17;6.67;;;;;;;30.46;36.15;94299.55;816387;71;33070;-75
2021/06/11 09:16:23;;;;;;;6.87;6.17;;;;;;;31.80;33.44;94267.98;828352;71;30907;-77
2021/06/11 09:31:08;;;;;;;6.40;5.83;;;;;;;32.42;30.81;94266.41;828418;71;29709;-76
2021/06/11 09:46:14;;;;;;;6.93;6.40;;;;;;;32.37;30.73;94249.28;827585;71;32793;-77
2021/06/11 10:01:12;;;;;;;6.53;6.10;;;;;;;32.79;30.26;94244.30;828406;71;29653;-76
2021/06/11 10:16:22;;;;;;;6.57;6.13;;;;;;;33.00;29.01;94231.98;834103;71;32749;-78
2021/06/11 10:31:34;;;;;;;6.80;6.30;;;;;;;32.63;28.94;94205.82;828220;71;32657;-78
2021/06/11 10:46:33;;;;;;;5.13;4.83;;;;;;;32.74;26.82;94208.33;833993;71;33187;-78
2021/06/11 11:01:31;;;;;;;6.03;5.53;;;;;;;31.57;28.74;94200.41;828949;71;32766;-78
2021/06/11 11:16:25;;;;;;;8.90;5.07;;;;;;;28.56;32.91;94240.84;827596;71;33112;-77
2021/06/11 11:31:16;;;;;;;5.90;5.50;;;;;;;26.10;42.22;94255.84;834169;71;32755;-78
2021/06/11 11:46:15;;;;;;;5.30;4.90;;;;;;;;;;834908;71;32691;-80
2021/06/11 12:01:10;;;;;;;4.80;4.37;;;;;;;26.14;37.54;94253.91;828473;71;30271;-79
2021/06/11 12:16:24;;;;;;;6.27;5.10;;;;;;;24.86;42.65;94259.84;814415;71;32785;-78
2021/06/11 12:31:08;;;;;;;5.40;4.83;;;;;;;24.02;44.62;94255.34;829060;71;29670;-79
2021/06/11 12:46:08;;;;;;;5.70;5.20;;;;;;;22.72;49.78;94247.19;834186;71;29718;-78
2021/06/11 13:01:15;;;;;;;6.00;5.40;;;;;;;23.28;48.82;94229.98;827601;71;32661;-77
2021/06/11 13:16:16;;;;;;;5.63;5.13;;;;;;;22.79;48.57;94237.31;813284;71;32746;-77
2021/06/11 13:31:15;;;;;;;4.90;4.50;;;;;;;22.67;48.05;94224.78;827564;71;32707;-79
2021/06/11 13:46:16;;;;;;;5.50;5.10;;;;;;;22.65;48.06;94206.45;827630;71;33193;-77
2021/06/11 14:01:30;;;;;;;5.70;5.20;;;;;;;22.24;48.82;94195.81;818686;71;33328;-78
2021/06/11 14:16:10;;;;;;;5.80;5.40;;;;;;;22.12;48.59;94181.36;820818;71;31089;-81
2021/06/11 14:31:17;;;;;;;5.10;4.77;;;;;;;22.02;47.97;94194.84;819225;71;32868;-76
2021/06/11 14:46:18;;;;;;;5.65;4.95;;;;;;;22.26;50.64;94190.86;820826;71;32828;-79
2021/06/11 15:16:29;;;;;;;5.42;4.85;;;;;;;21.91;49.85;94194.73;820980;71;32908;-79
2021/06/11 15:31:10;;;;;;;4.80;4.30;;;;;;;22.07;49.53;94196.41;815282;71;30303;-79
2021/06/11 15:46:16;;;;;;;4.45;4.15;;;;;;;21.67;50.47;94198.68;818226;71;32836;-77
2021/06/11 21:16:11;;;;;;;5.67;5.17;;;;;;;19.57;62.77;94343.66;834118;71;29712;-79
2021/06/11 21:31:08;;;;;;;5.72;5.10;;;;;;;19.82;61.65;94354.08;828904;71;29799;-79
2021/06/11 21:46:12;;;;;;;5.58;5.12;;;;;;;19.98;60.95;94364.67;794240;74;30419;-81
2021/06/11 22:01:17;;;;;;;5.30;4.90;;;;;;;20.00;60.04;94359.20;827789;71;32684;-80
2021/06/11 22:16:09;;;;;;;8.75;6.67;;;;;;;19.94;61.60;94356.61;834088;71;30243;-79
2021/06/11 22:31:10;;;;;;;6.78;6.28;;;;;;;19.93;62.27;94370.27;828710;71;29760;-78
2021/06/11 22:46:09;;;;;;;6.12;5.62;;;;;;;19.58;63.21;94348.42;830249;70;29740;-84
2021/06/11 23:01:12;;;;;;;5.60;5.15;;;;;;;19.53;63.54;94373.42;835067;71;30254;-79
2021/06/11 23:16:09;;;;;;;5.40;5.00;;;;;;;19.30;63.74;94369.31;834574;71;30744;-78
2021/06/11 23:31:14;;;;;;;5.00;4.60;;;;;;;18.98;64.58;94375.22;827528;71;32732;-78
2021/06/11 23:46:08;;;;;;;6.40;5.78;;;;;;;18.83;65.02;94379.97;828401;71;30257;-78
